Time;durP1;ratioP1;P1;durP2;ratioP2;P2;SDS_P1;SDS_P2;PMS_P1;PMS_P2;Temp;Humidity;BMP_temperature;BMP_pressure;BME280_temperature;BME280_humidity;BME280_pressure;Samples;Min_cycle;Max_cycle;Signal;HPM_P1;HPM_P2
2023/01/20 00:01:05;;;;;;;24.73;13.07;;;1.40;99.90;;;;;;5032053;28;20044;-75
2023/01/20 00:03:31;;;;;;;23.53;10.30;;;1.40;99.90;;;;;;5022411;28;21207;-75
2023/01/20 00:05:57;;;;;;;22.63;12.17;;;1.40;99.90;;;;;;5042410;28;20037;-74
2023/01/20 00:08:24;;;;;;;20.23;10.23;;;1.50;99.90;;;;;;5043217;28;20425;-75
2023/01/20 00:10:50;;;;;;;22.83;11.57;;;1.50;99.90;;;;;;5042195;28;20220;-75
2023/01/20 00:13:16;;;;;;;19.53;10.23;;;1.60;99.90;;;;;;5036325;28;20033;-75
2023/01/20 00:15:43;;;;;;;20.30;11.10;;;1.60;99.90;;;;;;5011149;28;20416;-76
2023/01/20 00:18:09;;;;;;;22.57;11.60;;;1.60;99.90;;;;;;5026189;28;20435;-75
2023/01/20 00:20:35;;;;;;;22.43;10.80;;;1.60;99.90;;;;;;5027987;28;20044;-76
2023/01/20 00:23:02;;;;;;;24.13;12.97;;;1.60;99.90;;;;;;5037321;28;21475;-75
2023/01/20 00:25:28;;;;;;;31.53;14.57;;;1.70;99.90;;;;;;5026989;28;20397;-76
2023/01/20 00:27:54;;;;;;;45.90;18.77;;;1.70;99.90;;;;;;5043954;28;20041;-76
2023/01/20 00:30:21;;;;;;;46.37;21.43;;;1.70;99.90;;;;;;5027142;28;20032;-77
2023/01/20 00:32:47;;;;;;;49.13;23.07;;;1.70;99.90;;;;;;5036369;28;20673;-76
2023/01/20 00:35:13;;;;;;;41.40;19.63;;;1.70;99.90;;;;;;5027794;28;20035;-76
2023/01/20 00:37:42;;;;;;;47.53;21.83;;;1.70;99.90;;;;;;5042051;28;20035;-75
2023/01/20 00:40:08;;;;;;;48.43;23.10;;;1.70;99.90;;;;;;5044188;28;20518;-74
2023/01/20 00:42:35;;;;;;;47.17;21.63;;;1.70;99.90;;;;;;5020982;28;20040;-73
2023/01/20 00:45:01;;;;;;;45.93;22.70;;;1.70;99.90;;;;;;5026065;28;20041;-76
2023/01/20 00:47:27;;;;;;;46.27;21.20;;;1.80;99.90;;;;;;5026216;28;20040;-75
2023/01/20 00:49:53;;;;;;;64.53;27.60;;;1.80;99.90;;;;;;5026469;28;20041;-75
2023/01/20 00:52:20;;;;;;;60.30;26.50;;;1.80;99.90;;;;;;5044805;28;20044;-74
2023/01/20 00:54:46;;;;;;;55.10;26.23;;;1.90;99.90;;;;;;5044746;28;20049;-75
2023/01/20 00:57:12;;;;;;;61.40;28.07;;;1.90;99.90;;;;;;5030232;28;20516;-76
2023/01/20 00:59:39;;;;;;;67.67;31.83;;;1.90;99.90;;;;;;5048784;28;20371;-74
2023/01/20 01:02:05;;;;;;;77.63;36.83;;;1.90;99.90;;;;;;5043727;28;20041;-74
2023/01/20 01:04:32;;;;;;;69.30;31.83;;;1.80;99.90;;;;;;5045276;28;20032;-75
2023/01/20 01:06:58;;;;;;;78.90;35.03;;;1.80;99.90;;;;;;5046777;28;20037;-74
2023/01/20 01:09:24;;;;;;;87.07;37.53;;;1.90;99.90;;;;;;5046224;28;20484;-75
2023/01/20 01:11:51;;;;;;;90.00;38.17;;;1.90;99.90;;;;;;5029228;28;20118;-74
2023/01/20 01:14:18;;;;;;;71.87;33.30;;;1.90;99.90;;;;;;5043019;28;20381;-75
2023/01/20 01:16:44;;;;;;;78.73;36.97;;;1.90;99.90;;;;;;5019058;28;20040;-75
2023/01/20 01:19:10;;;;;;;90.60;40.03;;;1.80;99.90;;;;;;5048981;28;20388;-75
2023/01/20 01:21:36;;;;;;;87.53;37.63;;;1.90;99.90;;;;;;5044146;28;20033;-76
2023/01/20 01:24:03;;;;;;;89.23;41.63;;;1.90;99.90;;;;;;5012526;28;20059;-75
2023/01/20 01:26:29;;;;;;;82.60;36.70;;;1.80;99.90;;;;;;5047886;28;20055;-75
2023/01/20 01:28:55;;;;;;;94.33;42.90;;;1.80;99.90;;;;;;5021360;28;20040;-76
2023/01/20 01:31:22;;;;;;;90.27;39.70;;;1.80;99.90;;;;;;5026463;28;20700;-75
2023/01/20 01:33:48;;;;;;;80.20;35.77;;;1.80;99.90;;;;;;5042642;28;20036;-75
2023/01/20 01:36:16;;;;;;;82.80;36.03;;;1.80;99.90;;;;;;5018685;28;20870;-75
2023/01/20 01:38:43;;;;;;;74.27;33.47;;;1.80;99.90;;;;;;5012895;28;20048;-75
2023/01/20 01:41:11;;;;;;;79.70;36.67;;;1.90;99.90;;;;;;5025785;28;20055;-73
2023/01/20 01:43:39;;;;;;;70.70;32.13;;;1.90;99.90;;;;;;5041642;28;20033;-75
2023/01/20 01:46:06;;;;;;;76.90;36.57;;;1.90;99.90;;;;;;5030042;28;20049;-74
2023/01/20 01:48:40;;;;;;;73.63;33.13;;;1.90;99.90;;;;;;5047884;28;20036;-76
2023/01/20 01:51:30;;;;;;;67.63;32.07;;;1.90;99.90;;;;;;5030577;28;20400;-74
2023/01/20 01:54:15;;;;;;;66.90;31.57;;;1.90;99.90;;;;;;5043155;28;20036;-75
2023/01/20 01:56:43;;;;;;;74.47;37.33;;;1.90;99.90;;;;;;5032161;28;20108;-75
2023/01/20 01:59:11;;;;;;;68.17;33.53;;;1.90;99.90;;;;;;5047328;28;20048;-75
2023/01/20 02:01:41;;;;;;;66.70;32.83;;;1.90;99.90;;;;;;5040948;28;20392;-75
2023/01/20 02:04:15;;;;;;;65.17;31.17;;;1.90;99.90;;;;;;5022493;28;20036;-76
2023/01/20 02:06:47;;;;;;;60.20;30.47;;;1.90;99.90;;;;;;5045327;28;20029;-76
2023/01/20 02:09:14;;;;;;;60.55;30.02;;;1.90;99.90;;;;;;5010612;28;20045;-75
2023/01/20 02:11:50;;;;;;;71.57;33.07;;;2.00;99.90;;;;;;5040272;28;20032;-75
2023/01/20 02:14:18;;;;;;;58.30;31.07;;;2.00;99.90;;;;;;5021756;28;20029;-75
2023/01/20 02:17:07;;;;;;;57.57;28.80;;;2.00;99.90;;;;;;5014164;28;20045;-75
2023/01/20 02:20:00;;;;;;;57.53;28.83;;;1.90;99.90;;;;;;5029196;28;20045;-75
2023/01/20 02:22:26;;;;;;;57.50;29.25;;;2.00;99.90;;;;;;5037669;28;20041;-75
2023/01/20 02:25:03;;;;;;;64.53;30.67;;;1.90;99.90;;;;;;5032128;28;20037;-75
2023/01/20 02:28:12;;;;;;;56.67;28.47;;;1.90;99.90;;;;;;5013945;28;20040;-75
2023/01/20 02:31:08;;;;;;;58.77;28.13;;;1.90;99.90;;;;;;5028296;28;20029;-77
2023/01/20 02:34:03;;;;;;;61.67;29.87;;;1.90;99.90;;;;;;5024796;28;20043;-75
2023/01/20 02:36:36;;;;;;;63.57;29.63;;;1.90;99.90;;;;;;5045533;28;20057;-75
2023/01/20 02:39:18;;;;;;;62.95;29.58;;;1.90;99.90;;;;;;5046345;28;20384;-74
2023/01/20 02:42:00;;;;;;;57.75;28.27;;;2.00;99.90;;;;;;5038917;28;20029;-75
2023/01/20 02:44:37;;;;;;;62.37;29.00;;;2.00;99.90;;;;;;5040552;28;20484;-75
2023/01/20 02:47:21;;;;;;;74.03;31.30;;;2.00;99.90;;;;;;5029861;28;20428;-75
2023/01/20 02:50:03;;;;;;;68.30;31.37;;;2.00;99.90;;;;;;5013942;28;20519;-76
2023/01/20 02:52:44;;;;;;;52.50;24.95;;;2.00;99.90;;;;;;5036335;28;20036;-75
2023/01/20 02:55:19;;;;;;;56.07;27.10;;;2.00;99.90;;;;;;5045919;28;20040;-75
2023/01/20 02:57:50;;;;;;;46.90;21.57;;;2.00;99.90;;;;;;5044435;28;20041;-75
2023/01/20 03:00:26;;;;;;;49.23;22.63;;;2.00;99.90;;;;;;5017635;28;20468;-75
2023/01/20 03:02:56;;;;;;;71.53;31.67;;;2.00;99.90;;;;;;5017797;28;20037;-74
2023/01/20 03:05:29;;;;;;;59.37;28.30;;;2.00;99.90;;;;;;5045367;28;20045;-76
2023/01/20 03:07:59;;;;;;;71.27;33.43;;;1.90;99.90;;;;;;5044043;28;20037;-75
2023/01/20 03:10:28;;;;;;;54.97;27.20;;;1.90;99.90;;;;;;5044463;28;20041;-76
2023/01/20 03:13:00;;;;;;;71.60;33.30;;;1.90;99.90;;;;;;5003354;28;20060;-76
2023/01/20 03:15:34;;;;;;;74.60;31.30;;;1.90;99.90;;;;;;5014028;28;20045;-76
2023/01/20 03:18:00;;;;;;;75.40;34.53;;;1.90;99.90;;;;;;5042279;28;20041;-75
2023/01/20 03:20:27;;;;;;;79.00;36.43;;;1.90;99.90;;;;;;5027988;28;20068;-76
2023/01/20 03:22:53;;;;;;;64.10;32.43;;;1.90;99.90;;;;;;5000612;28;20053;-76
2023/01/20 03:25:19;;;;;;;83.37;37.20;;;1.90;99.90;;;;;;5045467;28;20037;-75
2023/01/20 03:27:46;;;;;;;73.97;32.13;;;1.90;99.90;;;;;;5032233;28;20045;-75
2023/01/20 03:30:15;;;;;;;74.23;33.87;;;1.90;99.90;;;;;;5045937;28;20044;-76
2023/01/20 03:32:48;;;;;;;78.10;33.57;;;1.90;99.90;;;;;;5020789;28;21094;-76
2023/01/20 03:35:15;;;;;;;74.17;34.53;;;1.90;99.90;;;;;;5043688;28;20033;-76
2023/01/20 03:37:42;;;;;;;73.13;30.80;;;1.90;99.90;;;;;;5027323;28;20443;-76
2023/01/20 03:40:12;;;;;;;72.27;30.00;;;1.90;99.90;;;;;;5043876;28;20508;-75
2023/01/20 03:42:53;;;;;;;81.70;33.63;;;1.90;99.90;;;;;;5034631;28;20052;-74
2023/01/20 03:45:27;;;;;;;88.47;37.73;;;1.90;99.90;;;;;;5046593;28;20041;-75
2023/01/20 03:47:56;;;;;;;81.53;36.07;;;1.90;99.90;;;;;;5043568;28;20044;-75
2023/01/20 03:50:39;;;;;;;90.23;37.53;;;1.90;99.90;;;;;;5044467;28;20502;-76
2023/01/20 03:53:26;;;;;;;77.97;34.22;;;1.90;99.90;;;;;;5034132;28;20794;-75
2023/01/20 03:56:10;;;;;;;86.93;37.30;;;1.90;99.90;;;;;;5028793;28;20051;-75
2023/01/20 03:58:41;;;;;;;76.67;33.03;;;1.80;99.90;;;;;;5043564;28;20767;-75
2023/01/20 04:01:12;;;;;;;83.73;35.23;;;1.80;99.90;;;;;;5024384;28;20104;-76
2023/01/20 04:03:43;;;;;;;105.17;39.97;;;1.80;99.90;;;;;;5025020;28;20036;-76
2023/01/20 04:06:11;;;;;;;76.40;33.33;;;1.90;99.90;;;;;;5028215;28;20033;-75
2023/01/20 04:08:52;;;;;;;96.43;38.37;;;1.90;99.90;;;;;;5046065;28;20495;-76
2023/01/20 04:11:18;;;;;;;86.20;34.60;;;1.90;99.90;;;;;;5039432;28;20040;-75
2023/01/20 04:13:45;;;;;;;117.50;43.43;;;1.90;99.90;;;;;;5039063;28;20035;-75
2023/01/20 04:16:15;;;;;;;104.87;42.03;;;1.90;99.90;;;;;;5045554;28;20043;-76
2023/01/20 04:18:45;;;;;;;109.13;42.50;;;1.90;99.90;;;;;;5027506;28;20041;-75
2023/01/20 04:21:28;;;;;;;104.40;43.60;;;1.80;99.90;;;;;;5040001;28;20037;-75
2023/01/20 04:24:14;;;;;;;108.77;43.07;;;1.80;99.90;;;;;;5020160;28;20053;-76
2023/01/20 04:26:40;;;;;;;109.00;42.33;;;1.80;99.90;;;;;;5033313;28;20048;-75
2023/01/20 04:29:07;;;;;;;94.10;37.17;;;1.80;99.90;;;;;;5049614;28;20041;-75
2023/01/20 04:31:35;;;;;;;113.40;43.73;;;1.80;99.90;;;;;;5029233;28;20044;-75
2023/01/20 04:34:02;;;;;;;109.97;42.07;;;1.70;99.90;;;;;;5029752;28;20052;-77
2023/01/20 04:36:28;;;;;;;106.90;38.73;;;1.70;99.90;;;;;;5033236;28;20032;-75
2023/01/20 04:38:55;;;;;;;103.63;38.33;;;1.80;99.90;;;;;;5021299;28;20598;-76
2023/01/20 04:41:21;;;;;;;102.67;38.73;;;1.70;99.90;;;;;;5043781;28;20033;-76
2023/01/20 04:43:47;;;;;;;99.93;37.67;;;1.70;99.90;;;;;;5007533;28;20539;-76
2023/01/20 04:46:15;;;;;;;98.23;35.90;;;1.70;99.90;;;;;;5019115;28;21388;-75
2023/01/20 04:48:43;;;;;;;111.00;40.23;;;1.80;99.90;;;;;;5046628;28;20032;-76
2023/01/20 04:51:10;;;;;;;115.07;39.30;;;1.80;99.90;;;;;;5045167;28;20103;-76
2023/01/20 04:53:36;;;;;;;107.80;39.53;;;1.80;99.90;;;;;;5042730;28;20036;-76
2023/01/20 04:56:03;;;;;;;96.93;35.03;;;1.80;99.90;;;;;;5050094;28;20045;-75
2023/01/20 04:58:29;;;;;;;98.13;37.13;;;1.80;99.90;;;;;;5030371;28;20033;-76
2023/01/20 05:00:56;;;;;;;96.47;36.53;;;1.80;99.90;;;;;;5014823;28;20056;-75
2023/01/20 05:03:22;;;;;;;104.67;38.83;;;1.80;99.90;;;;;;5027062;28;20048;-76
2023/01/20 05:05:53;;;;;;;93.00;33.03;;;1.80;99.90;;;;;;5047719;28;20045;-75
2023/01/20 05:08:20;;;;;;;98.73;36.20;;;1.80;99.90;;;;;;5046150;28;20381;-76
2023/01/20 05:10:46;;;;;;;86.60;33.27;;;1.80;99.90;;;;;;5048450;28;20592;-78
2023/01/20 05:13:13;;;;;;;92.40;34.97;;;1.80;99.90;;;;;;5039407;28;20443;-75
2023/01/20 05:15:40;;;;;;;94.53;35.50;;;1.80;99.90;;;;;;5050599;28;20044;-76
2023/01/20 05:18:06;;;;;;;96.97;35.23;;;1.80;99.90;;;;;;5013576;28;20044;-75
2023/01/20 05:20:32;;;;;;;90.03;34.13;;;1.80;99.90;;;;;;5030423;28;20041;-76
2023/01/20 05:22:58;;;;;;;86.87;33.27;;;1.80;99.90;;;;;;5038475;28;20072;-76
2023/01/20 05:25:25;;;;;;;81.27;29.97;;;1.80;99.90;;;;;;5014841;28;20050;-75
2023/01/20 05:27:51;;;;;;;103.90;37.27;;;1.80;99.90;;;;;;5047149;28;20041;-76
2023/01/20 05:30:17;;;;;;;103.07;37.63;;;1.80;99.90;;;;;;5046347;28;20032;-76
2023/01/20 05:32:45;;;;;;;81.93;32.40;;;1.80;99.90;;;;;;5021146;28;20562;-75
2023/01/20 05:35:11;;;;;;;88.10;34.43;;;1.80;99.90;;;;;;5030651;28;20483;-76
2023/01/20 05:37:37;;;;;;;78.23;32.13;;;1.80;99.90;;;;;;5062214;28;20033;-76
2023/01/20 05:40:04;;;;;;;92.43;36.17;;;1.80;99.90;;;;;;5028871;28;20052;-75
2023/01/20 05:42:32;;;;;;;95.20;35.43;;;1.80;99.90;;;;;;5021540;28;20036;-75
2023/01/20 05:44:58;;;;;;;81.43;32.60;;;1.70;99.90;;;;;;5028692;28;20044;-76
2023/01/20 05:47:24;;;;;;;83.83;34.70;;;1.70;99.90;;;;;;5046205;28;20057;-75
2023/01/20 05:49:50;;;;;;;87.07;32.67;;;1.70;99.90;;;;;;5033552;28;20042;-76
2023/01/20 05:52:17;;;;;;;85.00;35.60;;;1.70;99.90;;;;;;5030176;28;20511;-74
2023/01/20 05:54:43;;;;;;;84.40;34.27;;;1.70;99.90;;;;;;5040394;28;20049;-77
2023/01/20 05:57:10;;;;;;;83.93;33.90;;;1.70;99.90;;;;;;5046796;28;20033;-74
2023/01/20 05:59:36;;;;;;;76.93;31.37;;;1.70;99.90;;;;;;5029002;28;20028;-74
2023/01/20 06:02:02;;;;;;;72.47;32.23;;;1.70;99.90;;;;;;5025444;28;20056;-75
2023/01/20 06:04:28;;;;;;;77.50;32.43;;;1.70;99.90;;;;;;5023747;28;20037;-75
2023/01/20 06:06:55;;;;;;;78.97;30.37;;;1.70;99.90;;;;;;5048163;28;20037;-76
2023/01/20 06:09:21;;;;;;;82.93;33.00;;;1.70;99.90;;;;;;5046519;28;20457;-75
2023/01/20 06:11:47;;;;;;;83.40;31.03;;;1.70;99.90;;;;;;5025662;28;20032;-75
2023/01/20 06:14:14;;;;;;;81.43;34.30;;;1.70;99.90;;;;;;5042896;28;20029;-77
2023/01/20 06:16:40;;;;;;;82.37;36.20;;;1.70;99.90;;;;;;5046078;28;20044;-75
2023/01/20 06:19:06;;;;;;;85.43;35.07;;;1.70;99.90;;;;;;5046656;28;20032;-76
2023/01/20 06:21:33;;;;;;;74.17;32.30;;;1.70;99.90;;;;;;5011433;28;20075;-76
2023/01/20 06:23:59;;;;;;;81.10;33.73;;;1.70;99.90;;;;;;5023549;28;20503;-75
2023/01/20 06:26:25;;;;;;;77.40;30.07;;;1.60;99.90;;;;;;5028416;28;20043;-74
2023/01/20 06:28:52;;;;;;;75.17;32.10;;;1.60;99.90;;;;;;5044484;28;20547;-76
2023/01/20 06:31:18;;;;;;;76.60;32.80;;;1.60;99.90;;;;;;5008275;28;20037;-75
2023/01/20 06:33:44;;;;;;;73.30;29.07;;;1.60;99.90;;;;;;5024076;28;20037;-75
2023/01/20 06:36:12;;;;;;;72.13;30.07;;;1.60;99.90;;;;;;5045630;28;20045;-76
2023/01/20 06:38:39;;;;;;;67.50;28.63;;;1.60;99.90;;;;;;5011887;28;20033;-75
2023/01/20 06:41:09;;;;;;;78.03;30.73;;;1.60;99.90;;;;;;5043664;28;20044;-76
2023/01/20 06:43:38;;;;;;;75.23;32.07;;;1.60;99.90;;;;;;5022747;28;20025;-76
2023/01/20 06:46:08;;;;;;;80.03;30.83;;;1.60;99.90;;;;;;5027778;28;20036;-76
2023/01/20 06:48:35;;;;;;;81.27;32.27;;;1.60;99.90;;;;;;5042030;28;20403;-76
2023/01/20 06:51:07;;;;;;;73.63;29.63;;;1.60;99.90;;;;;;5042147;28;20025;-74
2023/01/20 06:53:33;;;;;;;76.25;30.58;;;1.60;99.90;;;;;;5038847;28;20440;-77
2023/01/20 06:56:00;;;;;;;80.17;31.93;;;1.60;99.90;;;;;;5044509;28;20158;-75
2023/01/20 06:58:29;;;;;;;76.17;29.17;;;1.60;99.90;;;;;;5060154;28;20189;-75
2023/01/20 07:00:56;;;;;;;68.77;28.17;;;1.60;99.90;;;;;;5027321;28;20507;-74
2023/01/20 07:03:23;;;;;;;78.40;29.63;;;1.60;99.90;;;;;;5037174;28;20040;-76
2023/01/20 07:05:59;;;;;;;66.07;28.40;;;1.60;99.90;;;;;;5044752;28;20033;-75
2023/01/20 07:08:25;;;;;;;64.90;28.33;;;1.60;99.90;;;;;;5017526;28;20537;-75
2023/01/20 07:10:51;;;;;;;85.63;33.07;;;1.60;99.90;;;;;;5029255;28;20047;-76
2023/01/20 07:13:18;;;;;;;84.20;32.53;;;1.70;99.90;;;;;;5019293;28;20029;-76
2023/01/20 07:15:44;;;;;;;76.53;29.63;;;1.60;99.90;;;;;;5028972;28;20059;-77
2023/01/20 07:18:11;;;;;;;72.10;30.83;;;1.70;99.90;;;;;;5028705;28;20048;-76
2023/01/20 07:20:37;;;;;;;87.30;34.33;;;1.70;99.90;;;;;;5031106;28;20037;-77
2023/01/20 07:23:04;;;;;;;88.80;35.87;;;1.70;99.90;;;;;;5018092;28;20061;-76
2023/01/20 07:25:31;;;;;;;86.10;37.07;;;1.60;99.90;;;;;;5013865;28;20546;-77
2023/01/20 07:27:57;;;;;;;82.17;35.40;;;1.60;99.90;;;;;;5029939;28;20052;-77
2023/01/20 07:30:24;;;;;;;87.57;36.43;;;1.60;99.90;;;;;;5044049;28;20037;-77
2023/01/20 07:32:52;;;;;;;88.53;36.17;;;1.60;99.90;;;;;;5019785;28;20045;-76
2023/01/20 07:35:18;;;;;;;83.50;34.47;;;1.60;99.90;;;;;;5027928;28;20044;-75
2023/01/20 07:37:44;;;;;;;87.40;35.77;;;1.60;99.90;;;;;;5045774;28;20511;-77
2023/01/20 07:40:11;;;;;;;98.83;38.50;;;1.60;99.90;;;;;;5028848;28;20040;-77
2023/01/20 07:42:52;;;;;;;84.30;34.83;;;1.70;99.90;;;;;;5034948;28;20048;-76
2023/01/20 07:45:19;;;;;;;97.70;38.20;;;1.70;99.90;;;;;;5043729;28;20035;-76
2023/01/20 07:47:45;;;;;;;92.13;39.57;;;1.60;99.90;;;;;;5047308;28;20467;-77
2023/01/20 07:50:12;;;;;;;88.03;34.90;;;1.60;99.90;;;;;;5024234;28;20035;-76
2023/01/20 07:52:38;;;;;;;83.30;35.57;;;1.60;99.90;;;;;;5036786;28;20041;-76
2023/01/20 07:55:05;;;;;;;83.70;35.27;;;1.60;99.90;;;;;;5009743;28;20043;-76
2023/01/20 07:57:32;;;;;;;82.53;36.67;;;1.70;99.90;;;;;;5046523;28;20037;-77
2023/01/20 07:59:58;;;;;;;87.23;37.67;;;1.70;99.90;;;;;;5026353;28;20119;-76
2023/01/20 08:02:24;;;;;;;84.27;34.90;;;1.70;99.90;;;;;;5022573;28;20033;-76
2023/01/20 08:04:51;;;;;;;83.07;35.47;;;1.70;99.90;;;;;;5040610;28;20040;-76
2023/01/20 08:07:17;;;;;;;90.80;38.73;;;1.70;99.90;;;;;;5028240;28;20416;-76
2023/01/20 08:09:43;;;;;;;91.63;37.53;;;1.70;99.90;;;;;;5013889;28;20040;-76
2023/01/20 08:12:09;;;;;;;98.33;39.60;;;1.80;99.90;;;;;;5043452;28;20486;-76
2023/01/20 08:14:36;;;;;;;88.07;34.93;;;1.80;99.90;;;;;;5022303;28;21271;-77
2023/01/20 08:17:02;;;;;;;86.07;38.27;;;1.80;99.90;;;;;;5012078;28;20029;-76
2023/01/20 08:19:28;;;;;;;88.57;35.40;;;1.80;99.90;;;;;;5008511;28;20411;-77
2023/01/20 08:21:55;;;;;;;87.27;36.00;;;1.80;99.90;;;;;;5008120;28;20045;-76
2023/01/20 08:24:21;;;;;;;91.83;38.93;;;1.80;99.90;;;;;;5023953;28;20056;-78
2023/01/20 08:26:49;;;;;;;83.50;34.87;;;1.80;99.90;;;;;;5045541;28;20491;-76
2023/01/20 08:29:15;;;;;;;89.50;36.47;;;1.80;99.90;;;;;;5013747;28;20052;-76
2023/01/20 08:31:41;;;;;;;96.83;38.33;;;1.80;99.90;;;;;;5040264;28;20040;-77
2023/01/20 08:34:08;;;;;;;100.67;38.77;;;1.80;99.90;;;;;;5021635;28;20041;-76
2023/01/20 08:36:36;;;;;;;87.80;37.60;;;1.80;99.90;;;;;;5027036;28;20036;-76
2023/01/20 08:39:06;;;;;;;97.27;37.87;;;1.80;99.90;;;;;;5042711;28;20056;-76
2023/01/20 08:41:35;;;;;;;73.53;29.70;;;1.80;99.90;;;;;;5023257;28;20040;-76
2023/01/20 08:44:06;;;;;;;90.90;35.33;;;1.90;99.90;;;;;;5038984;28;20399;-75
2023/01/20 08:46:33;;;;;;;86.97;35.17;;;1.90;99.90;;;;;;5026718;28;20728;-75
2023/01/20 08:49:00;;;;;;;96.10;38.83;;;1.90;99.90;;;;;;5028273;28;20045;-78
2023/01/20 08:51:31;;;;;;;101.03;40.40;;;1.90;99.90;;;;;;5040573;28;20048;-78
2023/01/20 08:53:58;;;;;;;99.40;38.97;;;1.90;99.90;;;;;;5035220;28;20037;-79
2023/01/20 08:56:24;;;;;;;93.43;38.93;;;1.90;99.90;;;;;;5024267;28;20033;-77
2023/01/20 08:58:52;;;;;;;104.90;40.33;;;1.90;99.90;;;;;;5009197;28;20030;-77
2023/01/20 09:01:22;;;;;;;96.40;38.40;;;1.90;99.90;;;;;;5016670;28;20041;-77
2023/01/20 09:03:48;;;;;;;104.03;41.20;;;1.90;99.90;;;;;;5015992;28;20443;-76
2023/01/20 09:06:15;;;;;;;91.47;35.27;;;1.90;99.90;;;;;;5036710;28;20467;-77
2023/01/20 09:08:42;;;;;;;90.23;36.30;;;1.90;99.90;;;;;;5038233;28;20043;-78
2023/01/20 09:11:11;;;;;;;96.30;37.20;;;2.00;99.90;;;;;;5035181;28;20029;-77
2023/01/20 09:13:38;;;;;;;90.87;37.13;;;2.00;99.90;;;;;;5037863;28;20436;-77
2023/01/20 09:16:05;;;;;;;107.20;39.43;;;2.00;99.90;;;;;;5045751;28;20029;-78
2023/01/20 09:18:32;;;;;;;98.33;37.83;;;2.00;99.90;;;;;;5029433;28;20044;-78
2023/01/20 09:21:00;;;;;;;99.53;37.67;;;2.00;99.90;;;;;;5008648;28;20448;-77
2023/01/20 09:23:27;;;;;;;93.33;36.47;;;2.00;99.90;;;;;;5038860;28;20048;-79
2023/01/20 09:25:57;;;;;;;103.07;37.87;;;2.00;99.90;;;;;;5014128;28;20043;-77
2023/01/20 09:28:24;;;;;;;85.63;33.83;;;2.10;99.90;;;;;;5029008;28;20400;-77
2023/01/20 09:31:06;;;;;;;87.70;35.70;;;2.10;99.90;;;;;;5045801;28;20033;-77
2023/01/20 09:33:35;;;;;;;90.28;35.15;;;2.10;99.90;;;;;;5024404;28;20510;-76
2023/01/20 09:36:02;;;;;;;84.23;33.40;;;2.10;99.90;;;;;;5034636;28;20578;-77
2023/01/20 09:44:22;;;;;;;91.20;36.03;;;2.10;99.90;;;;;;5040312;28;20033;-78
2023/01/20 09:47:19;;;;;;;76.03;31.03;;;2.10;99.90;;;;;;5046516;28;20411;-77
2023/01/20 09:53:15;;;;;;;72.13;30.10;;;2.10;99.90;;;;;;5037510;28;20401;-76
2023/01/20 09:56:10;;;;;;;79.37;31.47;;;2.20;99.90;;;;;;5013519;28;20496;-75
2023/01/20 09:59:03;;;;;;;80.63;33.43;;;2.20;99.90;;;;;;5045736;28;20045;-76
2023/01/20 10:01:43;;;;;;;107.00;46.43;;;2.20;99.90;;;;;;5024524;28;20053;-76
2023/01/20 10:04:22;;;;;;;86.30;36.17;;;2.10;99.90;;;;;;5008602;28;20036;-76
2023/01/20 10:06:53;;;;;;;90.30;37.47;;;2.10;99.90;;;;;;5028033;28;20040;-77
2023/01/20 10:09:37;;;;;;;68.73;31.90;;;2.10;99.90;;;;;;5061430;28;20048;-77
2023/01/20 10:12:16;;;;;;;74.57;32.50;;;2.10;99.90;;;;;;5040180;28;20468;-77
2023/01/20 10:14:49;;;;;;;72.70;32.10;;;2.10;99.90;;;;;;5024537;28;20044;-77
2023/01/20 10:17:44;;;;;;;74.33;31.43;;;2.10;99.90;;;;;;5031481;28;20041;-77
2023/01/20 10:20:34;;;;;;;71.23;29.60;;;2.10;99.90;;;;;;5020994;28;20045;-76
2023/01/20 10:23:03;;;;;;;84.13;34.27;;;2.10;99.90;;;;;;5031877;28;20049;-77
2023/01/20 10:25:37;;;;;;;89.07;34.27;;;2.10;99.90;;;;;;5046640;28;20041;-77
2023/01/20 10:28:27;;;;;;;79.07;33.40;;;2.10;99.90;;;;;;5029715;28;20036;-77
2023/01/20 10:30:56;;;;;;;77.23;30.70;;;2.10;99.90;;;;;;5046780;28;20508;-77
2023/01/20 10:33:30;;;;;;;79.23;31.93;;;2.10;99.90;;;;;;5020726;28;20682;-76
2023/01/20 10:35:58;;;;;;;89.53;35.37;;;2.10;99.90;;;;;;5045679;28;20033;-76
2023/01/20 10:38:52;;;;;;;85.23;33.77;;;2.10;99.90;;;;;;5012900;28;20057;-77
2023/01/20 10:41:44;;;;;;;88.40;36.63;;;2.10;99.90;;;;;;5040829;28;20420;-76
2023/01/20 10:44:12;;;;;;;85.77;34.87;;;2.10;99.90;;;;;;5041511;28;20037;-76
2023/01/20 10:47:00;;;;;;;84.17;34.13;;;2.10;99.90;;;;;;5048621;28;20028;-77
2023/01/20 10:49:52;;;;;;;76.23;31.60;;;2.10;99.90;;;;;;5047806;28;20508;-76
2023/01/20 10:52:27;;;;;;;86.67;33.30;;;2.10;99.90;;;;;;5055533;28;20037;-75
2023/01/20 10:55:19;;;;;;;84.07;33.00;;;2.10;99.90;;;;;;5028469;28;20028;-76
2023/01/20 10:57:56;;;;;;;89.93;34.97;;;2.10;99.90;;;;;;5029337;28;20162;-76
2023/01/20 11:00:26;;;;;;;88.67;35.80;;;2.20;99.90;;;;;;5028195;28;20036;-76
2023/01/20 11:02:54;;;;;;;91.37;37.33;;;2.20;99.90;;;;;;5036738;28;20036;-75
2023/01/20 11:05:24;;;;;;;88.97;36.90;;;2.30;99.90;;;;;;5044779;28;20040;-76
2023/01/20 11:07:53;;;;;;;93.70;37.77;;;2.30;99.90;;;;;;5047155;28;20048;-76
2023/01/20 11:10:23;;;;;;;96.40;36.93;;;2.40;99.90;;;;;;5044525;28;20434;-77
2023/01/20 11:12:53;;;;;;;84.30;35.23;;;2.40;99.90;;;;;;5036702;28;20033;-76
2023/01/20 11:15:31;;;;;;;70.43;31.27;;;2.50;99.90;;;;;;5044061;28;20470;-77
2023/01/20 11:18:22;;;;;;;76.77;31.80;;;2.50;99.90;;;;;;5029927;28;20498;-77
2023/01/20 11:21:12;;;;;;;81.73;34.47;;;2.60;99.90;;;;;;5010540;28;20049;-76
2023/01/20 11:23:56;;;;;;;79.30;33.53;;;2.60;99.90;;;;;;5040408;28;20053;-77
2023/01/20 11:26:28;;;;;;;78.43;35.20;;;2.70;99.90;;;;;;5042592;28;20488;-75
2023/01/20 11:28:58;;;;;;;76.72;33.47;;;2.70;99.90;;;;;;5026033;28;20484;-75
2023/01/20 11:31:35;;;;;;;75.43;33.43;;;2.70;99.90;;;;;;5039381;28;20736;-76
2023/01/20 11:34:21;;;;;;;69.67;31.37;;;2.70;99.90;;;;;;5006961;28;20064;-76
2023/01/20 11:36:49;;;;;;;69.03;30.60;;;2.80;99.90;;;;;;5044136;28;20459;-75
2023/01/20 11:39:27;;;;;;;71.53;33.83;;;2.80;99.90;;;;;;5027738;28;20044;-75
2023/01/20 11:42:16;;;;;;;67.97;33.10;;;2.80;99.90;;;;;;5022812;28;20605;-77
2023/01/20 11:44:48;;;;;;;69.13;31.03;;;2.80;99.90;;;;;;5024048;28;20029;-76
2023/01/20 11:47:27;;;;;;;65.87;32.13;;;2.80;99.90;;;;;;5045766;28;20865;-77
2023/01/20 11:50:03;;;;;;;68.03;31.10;;;2.80;99.90;;;;;;5030427;28;20044;-77
2023/01/20 11:52:36;;;;;;;61.53;30.70;;;2.80;99.90;;;;;;5039507;28;20037;-76
2023/01/20 11:55:23;;;;;;;59.20;29.75;;;2.80;99.90;;;;;;5043449;28;20495;-76
2023/01/20 11:57:53;;;;;;;64.05;30.10;;;2.80;99.90;;;;;;5029436;28;20035;-77
2023/01/20 12:00:23;;;;;;;58.33;31.20;;;2.80;99.90;;;;;;5044076;28;20051;-76
2023/01/20 12:03:25;;;;;;;55.60;28.57;;;2.80;99.90;;;;;;5023151;28;20044;-77
2023/01/20 12:05:54;;;;;;;58.97;30.10;;;2.80;99.90;;;;;;5044187;28;20042;-77
2023/01/20 12:08:36;;;;;;;57.27;30.97;;;2.80;99.90;;;;;;5045024;28;20041;-77
2023/01/20 12:11:05;;;;;;;55.80;30.67;;;2.80;99.90;;;;;;5022224;28;20036;-78
2023/01/20 12:14:18;;;;;;;58.80;30.33;;;2.80;99.90;;;;;;5009082;28;20846;-78
2023/01/20 12:16:26;;;;;;;52.33;27.93;;;2.80;99.90;;;;;;5026863;28;20052;-79
2023/01/20 12:18:58;;;;;;;55.77;29.77;;;2.80;99.90;;;;;;5028347;28;20789;-80
2023/01/20 12:21:36;;;;;;;55.97;30.45;;;2.80;99.90;;;;;;5039066;28;20056;-81
2023/01/20 12:24:08;;;;;;;53.20;30.57;;;2.80;99.90;;;;;;5022059;28;20045;-81
2023/01/20 12:26:35;;;;;;;55.75;28.90;;;2.80;99.90;;;;;;5029842;28;20028;-81
2023/01/20 12:29:21;;;;;;;48.50;26.97;;;2.80;99.90;;;;;;5043714;28;20041;-81
2023/01/20 12:31:48;;;;;;;45.33;25.83;;;2.80;99.90;;;;;;5038462;28;20037;-81
2023/01/20 12:34:16;;;;;;;48.67;28.47;;;2.80;99.90;;;;;;5037180;28;20021;-76
2023/01/20 12:37:09;;;;;;;47.27;28.10;;;2.70;99.90;;;;;;5039283;28;20487;-78
2023/01/20 12:39:46;;;;;;;45.47;24.50;;;2.70;99.90;;;;;;5040644;28;20033;-80
2023/01/20 12:42:37;;;;;;;44.63;26.17;;;2.70;99.90;;;;;;5006231;28;20076;-84
2023/01/20 12:45:37;;;;;;;42.70;24.97;;;2.70;99.90;;;;;;5015140;28;20503;-81
2023/01/20 12:48:34;;;;;;;43.27;25.53;;;2.70;99.90;;;;;;5029134;28;20048;-81
2023/01/20 12:51:08;;;;;;;37.55;20.92;;;2.70;99.90;;;;;;5015442;28;20036;-77
2023/01/20 12:54:11;;;;;;;45.22;25.38;;;2.80;99.90;;;;;;5013676;28;20404;-78
2023/01/20 12:56:56;;;;;;;41.10;24.40;;;2.80;99.90;;;;;;5046836;28;20041;-78
2023/01/20 13:00:00;;;;;;;37.90;22.77;;;2.80;99.90;;;;;;5048321;28;20040;-80
2023/01/20 13:02:27;;;;;;;35.47;22.27;;;2.90;99.90;;;;;;5027502;28;20704;-81
2023/01/20 13:05:27;;;;;;;39.70;24.90;;;2.90;99.90;;;;;;5026929;28;20052;-80
2023/01/20 13:08:11;;;;;;;36.85;23.33;;;2.90;99.90;;;;;;5047481;28;20029;-79